createdAt,value
2022-12-24T00:01:05.230Z,74.00
2022-12-24T00:03:32.878Z,74.20
2022-12-24T00:06:00.003Z,74.20
2022-12-24T00:08:26.969Z,74.20
2022-12-24T00:10:54.131Z,74.20
2022-12-24T00:13:22.629Z,74.30
2022-12-24T00:15:49.543Z,74.20
2022-12-24T00:18:18.022Z,74.30
2022-12-24T00:20:49.089Z,74.20
2022-12-24T00:23:16.418Z,74.40
2022-12-24T00:25:43.311Z,74.50
2022-12-24T00:28:10.622Z,74.50
2022-12-24T00:30:41.798Z,74.40
2022-12-24T00:33:09.531Z,74.50
2022-12-24T00:35:40.823Z,74.50
2022-12-24T00:38:09.473Z,74.50
2022-12-24T00:40:36.504Z,74.50
2022-12-24T00:43:03.994Z,74.60
2022-12-24T00:45:30.990Z,74.60
2022-12-24T00:47:57.907Z,74.60
2022-12-24T00:50:24.809Z,74.60
2022-12-24T00:52:52.115Z,74.70
2022-12-24T00:55:19.944Z,74.90
2022-12-24T00:57:46.886Z,74.80
2022-12-24T01:00:15.952Z,74.70
2022-12-24T01:02:43.038Z,74.80
2022-12-24T01:05:11.736Z,74.90
2022-12-24T01:07:45.419Z,74.70
2022-12-24T01:10:17.206Z,74.80
2022-12-24T01:12:44.914Z,74.90
2022-12-24T01:15:13.763Z,74.90
2022-12-24T01:17:41.453Z,74.90
2022-12-24T01:20:11.834Z,74.80
2022-12-24T01:22:38.759Z,74.90
2022-12-24T01:25:06.431Z,75.40
2022-12-24T01:27:34.168Z,74.80
2022-12-24T01:30:01.336Z,74.90
2022-12-24T01:32:29.084Z,74.90
2022-12-24T01:34:55.990Z,74.90
2022-12-24T01:37:24.112Z,75.20
2022-12-24T01:39:50.979Z,75.40
2022-12-24T01:42:42.577Z,75.50
2022-12-24T01:45:42.573Z,75.60
2022-12-24T01:48:25.358Z,75.70
2022-12-24T01:51:24.412Z,75.90
2022-12-24T01:53:59.652Z,75.80
2022-12-24T01:56:28.861Z,75.70
2022-12-24T01:59:02.536Z,75.30
2022-12-24T02:01:30.610Z,75.40
2022-12-24T02:03:57.648Z,75.50
2022-12-24T02:06:26.123Z,75.50
2022-12-24T02:08:52.998Z,75.80
2022-12-24T02:11:22.190Z,75.80
2022-12-24T02:13:56.861Z,75.80
2022-12-24T02:20:24.248Z,75.50
2022-12-24T02:23:13.443Z,75.50
2022-12-24T02:25:44.006Z,74.90
2022-12-24T02:28:33.645Z,74.90
2022-12-24T02:31:48.945Z,74.80
2022-12-24T02:34:24.941Z,74.50
2022-12-24T02:36:58.428Z,74.40
2022-12-24T02:39:35.294Z,74.50
2022-12-24T02:42:07.223Z,74.70
2022-12-24T02:44:46.445Z,75.00
2022-12-24T02:47:15.473Z,75.00
2022-12-24T02:49:45.755Z,74.90
2022-12-24T02:52:42.402Z,75.10
2022-12-24T02:55:18.269Z,75.20
2022-12-24T02:57:48.976Z,75.30
2022-12-24T03:00:20.936Z,75.40
2022-12-24T03:02:56.750Z,75.50
2022-12-24T03:05:50.595Z,75.40
2022-12-24T03:08:35.465Z,75.40
2022-12-24T03:11:11.043Z,75.30
2022-12-24T03:13:39.929Z,75.50
2022-12-24T03:16:10.285Z,75.40
2022-12-24T03:18:43.005Z,75.10
2022-12-24T03:21:18.682Z,75.10
2022-12-24T03:23:45.808Z,75.10
2022-12-24T03:26:16.264Z,74.70
2022-12-24T03:28:44.327Z,74.70
2022-12-24T03:31:12.061Z,74.90
2022-12-24T03:33:40.290Z,75.00
2022-12-24T03:36:07.839Z,75.00
2022-12-24T03:38:36.663Z,74.90
2022-12-24T03:41:04.111Z,74.90
2022-12-24T03:43:31.259Z,75.00
2022-12-24T03:45:58.528Z,74.90
2022-12-24T03:48:32.267Z,74.80
2022-12-24T03:50:59.735Z,74.80
2022-12-24T03:53:26.543Z,74.70
2022-12-24T03:55:53.484Z,74.90
2022-12-24T03:58:20.325Z,74.80
2022-12-24T04:00:49.728Z,75.00
2022-12-24T04:03:16.658Z,74.90
2022-12-24T04:05:45.300Z,74.90
2022-12-24T04:08:12.191Z,74.90
2022-12-24T04:10:39.163Z,74.70
2022-12-24T04:13:09.846Z,74.60
2022-12-24T04:15:38.017Z,74.50
2022-12-24T04:18:04.909Z,74.40
2022-12-24T04:20:32.304Z,74.40
2022-12-24T04:22:59.137Z,74.40
2022-12-24T04:25:26.995Z,74.40
2022-12-24T04:27:53.829Z,74.10
2022-12-24T04:30:21.585Z,73.90
2022-12-24T04:32:48.541Z,73.90
2022-12-24T04:35:16.377Z,73.80
2022-12-24T04:37:43.168Z,73.80
2022-12-24T04:40:11.268Z,73.60
2022-12-24T04:42:38.176Z,73.50
2022-12-24T04:45:06.969Z,73.30
2022-12-24T04:47:33.938Z,73.30
2022-12-24T04:50:01.579Z,73.30
2022-12-24T04:52:28.745Z,73.40
2022-12-24T04:54:56.569Z,73.30
2022-12-24T04:57:23.459Z,73.30
2022-12-24T04:59:50.361Z,73.40
2022-12-24T05:02:17.626Z,73.30
2022-12-24T05:04:45.297Z,73.80
2022-12-24T05:07:12.338Z,73.30
2022-12-24T05:09:40.791Z,73.30
2022-12-24T05:12:07.843Z,73.50
2022-12-24T05:14:34.861Z,73.40
2022-12-24T05:17:03.308Z,73.10
2022-12-24T05:19:32.862Z,72.90
2022-12-24T05:22:18.331Z,72.90
2022-12-24T05:25:06.790Z,72.60
2022-12-24T05:27:33.846Z,72.60
2022-12-24T05:30:04.697Z,72.70
2022-12-24T05:32:32.825Z,72.80
2022-12-24T05:35:10.143Z,72.90
2022-12-24T05:37:37.363Z,72.90
2022-12-24T05:40:07.292Z,72.90
2022-12-24T05:42:34.356Z,73.00
2022-12-24T05:45:01.487Z,72.70
2022-12-24T05:47:29.558Z,72.70
2022-12-24T05:49:56.581Z,72.60
2022-12-24T05:52:28.638Z,72.40
2022-12-24T05:55:11.472Z,72.30
2022-12-24T05:57:40.517Z,72.40
2022-12-24T06:00:12.788Z,72.30
2022-12-24T06:03:13.503Z,72.40
2022-12-24T06:06:21.181Z,72.50
2022-12-24T06:10:44.000Z,72.60
2022-12-24T06:11:55.520Z,72.40
2022-12-24T06:14:25.373Z,72.30
2022-12-24T06:17:07.726Z,72.30
2022-12-24T06:25:41.099Z,72.40
2022-12-24T06:28:08.515Z,72.40
2022-12-24T06:30:35.959Z,72.40
2022-12-24T06:33:03.552Z,72.40
2022-12-24T06:35:32.380Z,72.20
2022-12-24T06:37:59.875Z,72.30
2022-12-24T06:40:27.992Z,72.20
2022-12-24T06:42:55.381Z,72.20
2022-12-24T06:45:22.377Z,72.10
2022-12-24T06:47:49.526Z,72.30
2022-12-24T06:50:16.740Z,72.10
2022-12-24T06:52:43.668Z,71.90
2022-12-24T06:55:11.001Z,71.80
2022-12-24T06:57:37.817Z,72.30
2022-12-24T07:00:07.284Z,71.90
2022-12-24T07:02:34.622Z,71.40
2022-12-24T07:05:01.585Z,71.30
2022-12-24T07:07:28.454Z,71.00
2022-12-24T07:09:56.992Z,71.10
2022-12-24T07:12:23.821Z,71.20
2022-12-24T07:14:50.697Z,71.40
2022-12-24T07:17:18.083Z,71.20
2022-12-24T07:19:50.656Z,71.00
2022-12-24T07:22:17.944Z,71.00
2022-12-24T07:24:45.160Z,70.90
2022-12-24T07:27:12.318Z,70.80
2022-12-24T07:29:40.798Z,70.90
2022-12-24T07:32:15.106Z,70.80
2022-12-24T07:34:43.470Z,71.50
2022-12-24T07:37:13.446Z,72.50
2022-12-24T07:39:46.604Z,71.50
2022-12-24T07:42:14.466Z,70.80
2022-12-24T07:44:41.486Z,70.20
2022-12-24T07:47:08.753Z,69.90
2022-12-24T07:49:38.888Z,69.80
2022-12-24T07:52:06.189Z,69.60
2022-12-24T07:54:33.652Z,69.50
2022-12-24T07:57:00.669Z,69.40
2022-12-24T07:59:27.592Z,69.10
2022-12-24T08:01:56.121Z,68.80
2022-12-24T08:04:23.125Z,69.00
2022-12-24T08:06:50.775Z,69.20
2022-12-24T08:09:18.072Z,69.30
2022-12-24T08:11:51.583Z,69.40
2022-12-24T08:14:19.692Z,69.40
2022-12-24T08:16:47.151Z,69.20
2022-12-24T08:19:14.132Z,69.00
2022-12-24T08:21:41.517Z,69.30
2022-12-24T08:24:08.828Z,69.20
2022-12-24T08:26:35.693Z,69.20
2022-12-24T08:29:04.000Z,69.20
2022-12-24T08:31:31.301Z,69.00
2022-12-24T08:33:58.263Z,68.90
2022-12-24T08:36:25.127Z,69.00
2022-12-24T08:38:52.327Z,68.80
2022-12-24T08:41:19.189Z,68.80
2022-12-24T08:43:46.220Z,68.80
2022-12-24T08:46:13.219Z,69.10
2022-12-24T08:48:43.282Z,69.00
2022-12-24T08:51:12.103Z,68.90
2022-12-24T08:53:39.820Z,69.00
2022-12-24T08:56:09.256Z,69.10
2022-12-24T08:58:37.350Z,69.10
2022-12-24T09:01:13.000Z,69.20
2022-12-24T09:03:40.387Z,69.40
2022-12-24T09:06:10.704Z,69.20
2022-12-24T09:08:38.060Z,69.20
2022-12-24T09:11:10.905Z,69.20
2022-12-24T09:13:40.823Z,69.40
2022-12-24T09:16:08.310Z,69.40
2022-12-24T09:18:35.675Z,69.50
2022-12-24T09:21:09.206Z,70.10
2022-12-24T09:23:39.723Z,70.90
2022-12-24T09:26:19.840Z,70.30
2022-12-24T09:28:48.476Z,70.00
2022-12-24T09:31:16.159Z,69.60
2022-12-24T09:33:48.035Z,69.70
2022-12-24T09:36:15.468Z,69.60
2022-12-24T09:38:42.530Z,69.30
2022-12-24T09:41:36.753Z,69.30
2022-12-24T09:44:45.604Z,70.40
2022-12-24T09:47:29.854Z,70.10
2022-12-24T09:49:59.371Z,69.40
2022-12-24T09:52:46.464Z,69.20
2022-12-24T09:55:30.940Z,68.70
2022-12-24T09:58:00.822Z,69.10
2022-12-24T10:00:32.117Z,68.60
2022-12-24T10:02:59.272Z,68.40
2022-12-24T10:06:14.853Z,68.20
2022-12-24T10:09:07.072Z,68.30
2022-12-24T10:11:56.491Z,68.30
2022-12-24T10:14:52.409Z,68.30
2022-12-24T10:17:46.476Z,67.80
2022-12-24T10:20:45.652Z,68.10
2022-12-24T10:23:19.491Z,68.20
2022-12-24T10:26:05.311Z,68.20
2022-12-24T10:28:46.029Z,68.10
2022-12-24T10:31:14.218Z,68.00
2022-12-24T10:33:49.956Z,67.90
